sensor_id;sensor_type;location;lat;lon;timestamp;temperature;humidity
21259;DHT22;10787;53.364;-1.480;2023-10-08T00:00:41;17.40;99.90
21259;DHT22;10787;53.364;-1.480;2023-10-08T00:03:33;17.40;99.90
21259;DHT22;10787;53.364;-1.480;2023-10-08T00:06:18;17.30;99.90
21259;DHT22;10787;53.364;-1.480;2023-10-08T00:09:04;17.30;1.00
21259;DHT22;10787;53.364;-1.480;2023-10-08T00:11:52;17.30;1.00
21259;DHT22;10787;53.364;-1.480;2023-10-08T00:14:39;17.30;1.00
21259;DHT22;10787;53.364;-1.480;2023-10-08T00:17:28;17.30;1.00
21259;DHT22;10787;53.364;-1.480;2023-10-08T00:20:12;17.30;1.00
21259;DHT22;10787;53.364;-1.480;2023-10-08T00:23:09;17.20;99.90
21259;DHT22;10787;53.364;-1.480;2023-10-08T00:25:54;17.20;1.00
21259;DHT22;10787;53.364;-1.480;2023-10-08T00:28:39;17.20;1.00
21259;DHT22;10787;53.364;-1.480;2023-10-08T00:31:27;17.30;1.00
21259;DHT22;10787;53.364;-1.480;2023-10-08T00:34:16;17.20;99.90
21259;DHT22;10787;53.364;-1.480;2023-10-08T00:37:01;17.20;99.90
21259;DHT22;10787;53.364;-1.480;2023-10-08T00:39:46;17.10;93.70
21259;DHT22;10787;53.364;-1.480;2023-10-08T00:42:30;17.10;1.00
21259;DHT22;10787;53.364;-1.480;2023-10-08T00:45:15;17.00;99.90
21259;DHT22;10787;53.364;-1.480;2023-10-08T00:48:00;17.00;99.90
21259;DHT22;10787;53.364;-1.480;2023-10-08T00:50:44;17.00;99.90
21259;DHT22;10787;53.364;-1.480;2023-10-08T00:53:31;16.90;8.40
21259;DHT22;10787;53.364;-1.480;2023-10-08T00:56:26;16.90;99.90
21259;DHT22;10787;53.364;-1.480;2023-10-08T00:59:28;16.90;99.90
21259;DHT22;10787;53.364;-1.480;2023-10-08T01:02:17;16.90;90.10
21259;DHT22;10787;53.364;-1.480;2023-10-08T01:05:04;16.90;1.00
21259;DHT22;10787;53.364;-1.480;2023-10-08T01:07:48;16.90;1.00
21259;DHT22;10787;53.364;-1.480;2023-10-08T01:10:35;16.80;1.00
21259;DHT22;10787;53.364;-1.480;2023-10-08T01:13:19;16.80;1.00
21259;DHT22;10787;53.364;-1.480;2023-10-08T01:16:04;16.80;1.00
21259;DHT22;10787;53.364;-1.480;2023-10-08T01:18:52;16.80;99.90
21259;DHT22;10787;53.364;-1.480;2023-10-08T01:21:38;16.80;99.90
21259;DHT22;10787;53.364;-1.480;2023-10-08T01:24:23;16.70;1.00
21259;DHT22;10787;53.364;-1.480;2023-10-08T01:27:08;16.70;1.00
21259;DHT22;10787;53.364;-1.480;2023-10-08T01:29:55;16.60;1.00
21259;DHT22;10787;53.364;-1.480;2023-10-08T01:32:52;16.60;1.00
21259;DHT22;10787;53.364;-1.480;2023-10-08T01:35:36;16.60;99.90
21259;DHT22;10787;53.364;-1.480;2023-10-08T01:38:20;16.50;99.90
21259;DHT22;10787;53.364;-1.480;2023-10-08T01:41:08;16.50;99.90
21259;DHT22;10787;53.364;-1.480;2023-10-08T01:44:14;16.50;99.90
21259;DHT22;10787;53.364;-1.480;2023-10-08T01:46:58;16.50;99.90
21259;DHT22;10787;53.364;-1.480;2023-10-08T01:49:44;16.40;99.90
21259;DHT22;10787;53.364;-1.480;2023-10-08T01:52:29;16.40;99.90
21259;DHT22;10787;53.364;-1.480;2023-10-08T01:55:14;16.30;24.40
21259;DHT22;10787;53.364;-1.480;2023-10-08T01:58:03;16.30;1.00
21259;DHT22;10787;53.364;-1.480;2023-10-08T02:00:49;16.30;1.00
21259;DHT22;10787;53.364;-1.480;2023-10-08T02:03:34;16.20;1.00
21259;DHT22;10787;53.364;-1.480;2023-10-08T02:06:18;16.20;1.00
21259;DHT22;10787;53.364;-1.480;2023-10-08T02:09:04;16.20;1.00
21259;DHT22;10787;53.364;-1.480;2023-10-08T02:11:53;16.20;1.00
21259;DHT22;10787;53.364;-1.480;2023-10-08T02:14:40;16.10;1.00
21259;DHT22;10787;53.364;-1.480;2023-10-08T02:17:25;16.10;1.00
21259;DHT22;10787;53.364;-1.480;2023-10-08T02:20:09;16.10;1.00
21259;DHT22;10787;53.364;-1.480;2023-10-08T02:22:55;16.10;1.00
21259;DHT22;10787;53.364;-1.480;2023-10-08T02:25:40;16.10;1.00
21259;DHT22;10787;53.364;-1.480;2023-10-08T02:28:24;16.00;1.00
21259;DHT22;10787;53.364;-1.480;2023-10-08T02:31:10;16.00;1.00
21259;DHT22;10787;53.364;-1.480;2023-10-08T02:33:54;16.00;1.00
21259;DHT22;10787;53.364;-1.480;2023-10-08T02:36:39;16.00;1.00
21259;DHT22;10787;53.364;-1.480;2023-10-08T02:39:27;15.90;1.00
21259;DHT22;10787;53.364;-1.480;2023-10-08T02:42:11;16.00;1.00
21259;DHT22;10787;53.364;-1.480;2023-10-08T02:44:58;16.00;1.00
21259;DHT22;10787;53.364;-1.480;2023-10-08T02:47:44;15.90;1.00
21259;DHT22;10787;53.364;-1.480;2023-10-08T02:50:29;15.90;1.00
21259;DHT22;10787;53.364;-1.480;2023-10-08T02:53:13;15.90;1.00
21259;DHT22;10787;53.364;-1.480;2023-10-08T02:56:02;15.80;1.00
21259;DHT22;10787;53.364;-1.480;2023-10-08T02:58:56;15.80;1.00
21259;DHT22;10787;53.364;-1.480;2023-10-08T03:01:40;15.80;1.00
21259;DHT22;10787;53.364;-1.480;2023-10-08T03:04:25;15.80;1.00
21259;DHT22;10787;53.364;-1.480;2023-10-08T03:07:15;15.80;1.00
21259;DHT22;10787;53.364;-1.480;2023-10-08T03:10:06;15.70;90.60
21259;DHT22;10787;53.364;-1.480;2023-10-08T03:12:51;15.70;43.50
21259;DHT22;10787;53.364;-1.480;2023-10-08T03:15:35;15.60;1.00
21259;DHT22;10787;53.364;-1.480;2023-10-08T03:18:38;15.60;95.50
21259;DHT22;10787;53.364;-1.480;2023-10-08T03:21:27;15.60;1.00
21259;DHT22;10787;53.364;-1.480;2023-10-08T03:24:23;15.70;51.40
21259;DHT22;10787;53.364;-1.480;2023-10-08T03:27:13;15.70;96.40
21259;DHT22;10787;53.364;-1.480;2023-10-08T03:30:05;15.80;99.90
21259;DHT22;10787;53.364;-1.480;2023-10-08T03:32:50;15.80;3.20
21259;DHT22;10787;53.364;-1.480;2023-10-08T03:35:38;15.80;7.70
21259;DHT22;10787;53.364;-1.480;2023-10-08T03:38:27;15.80;1.00
21259;DHT22;10787;53.364;-1.480;2023-10-08T03:41:28;15.80;99.90
21259;DHT22;10787;53.364;-1.480;2023-10-08T03:44:13;15.80;1.00
21259;DHT22;10787;53.364;-1.480;2023-10-08T03:46:57;15.90;1.00
21259;DHT22;10787;53.364;-1.480;2023-10-08T03:49:42;15.90;1.00
21259;DHT22;10787;53.364;-1.480;2023-10-08T03:52:30;15.90;1.00
21259;DHT22;10787;53.364;-1.480;2023-10-08T03:55:15;15.90;1.00
21259;DHT22;10787;53.364;-1.480;2023-10-08T03:58:10;15.90;1.00
21259;DHT22;10787;53.364;-1.480;2023-10-08T04:01:11;15.90;1.00
21259;DHT22;10787;53.364;-1.480;2023-10-08T04:04:02;16.00;1.00
21259;DHT22;10787;53.364;-1.480;2023-10-08T04:06:46;15.90;1.00
21259;DHT22;10787;53.364;-1.480;2023-10-08T04:09:35;15.90;1.00
21259;DHT22;10787;53.364;-1.480;2023-10-08T04:12:19;15.90;1.00
21259;DHT22;10787;53.364;-1.480;2023-10-08T04:15:04;15.90;1.00
21259;DHT22;10787;53.364;-1.480;2023-10-08T04:17:56;15.90;1.00
21259;DHT22;10787;53.364;-1.480;2023-10-08T04:20:41;15.90;1.00
21259;DHT22;10787;53.364;-1.480;2023-10-08T04:23:44;15.80;1.00
21259;DHT22;10787;53.364;-1.480;2023-10-08T04:26:29;15.80;1.00
21259;DHT22;10787;53.364;-1.480;2023-10-08T04:29:14;15.80;1.00
21259;DHT22;10787;53.364;-1.480;2023-10-08T04:32:00;15.80;1.00
21259;DHT22;10787;53.364;-1.480;2023-10-08T04:34:45;15.70;1.00
21259;DHT22;10787;53.364;-1.480;2023-10-08T04:37:31;15.70;1.00
21259;DHT22;10787;53.364;-1.480;2023-10-08T04:40:17;15.80;77.90
21259;DHT22;10787;53.364;-1.480;2023-10-08T04:43:02;15.80;1.00
21259;DHT22;10787;53.364;-1.480;2023-10-08T04:45:47;15.80;1.00
21259;DHT22;10787;53.364;-1.480;2023-10-08T04:48:33;15.70;1.00
21259;DHT22;10787;53.364;-1.480;2023-10-08T04:51:17;15.70;1.00
21259;DHT22;10787;53.364;-1.480;2023-10-08T04:54:07;15.70;10.50
21259;DHT22;10787;53.364;-1.480;2023-10-08T04:56:51;15.70;1.00
21259;DHT22;10787;53.364;-1.480;2023-10-08T04:59:37;15.60;1.00
21259;DHT22;10787;53.364;-1.480;2023-10-08T05:02:22;15.60;23.70
21259;DHT22;10787;53.364;-1.480;2023-10-08T05:05:32;15.60;73.80
21259;DHT22;10787;53.364;-1.480;2023-10-08T05:08:37;15.60;26.50
21259;DHT22;10787;53.364;-1.480;2023-10-08T05:11:42;15.60;13.60
21259;DHT22;10787;53.364;-1.480;2023-10-08T05:14:35;15.60;80.30
21259;DHT22;10787;53.364;-1.480;2023-10-08T05:17:29;15.60;80.80
21259;DHT22;10787;53.364;-1.480;2023-10-08T05:20:28;15.50;98.60
21259;DHT22;10787;53.364;-1.480;2023-10-08T05:23:30;15.50;99.90
21259;DHT22;10787;53.364;-1.480;2023-10-08T05:26:15;15.50;99.90
21259;DHT22;10787;53.364;-1.480;2023-10-08T05:29:14;15.50;99.90
21259;DHT22;10787;53.364;-1.480;2023-10-08T05:32:17;15.50;99.90
21259;DHT22;10787;53.364;-1.480;2023-10-08T05:35:20;15.40;99.90
21259;DHT22;10787;53.364;-1.480;2023-10-08T05:38:24;15.50;99.90
21259;DHT22;10787;53.364;-1.480;2023-10-08T05:41:08;15.50;99.90
21259;DHT22;10787;53.364;-1.480;2023-10-08T05:44:12;15.50;99.90
21259;DHT22;10787;53.364;-1.480;2023-10-08T05:47:07;15.50;99.90
21259;DHT22;10787;53.364;-1.480;2023-10-08T05:50:04;15.60;99.90
21259;DHT22;10787;53.364;-1.480;2023-10-08T05:53:01;15.60;99.90
21259;DHT22;10787;53.364;-1.480;2023-10-08T05:56:04;15.50;99.90
21259;DHT22;10787;53.364;-1.480;2023-10-08T05:59:00;15.50;99.90
21259;DHT22;10787;53.364;-1.480;2023-10-08T06:01:58;15.50;99.90
21259;DHT22;10787;53.364;-1.480;2023-10-08T06:04:50;15.60;99.90
21259;DHT22;10787;53.364;-1.480;2023-10-08T06:07:54;15.60;99.90
21259;DHT22;10787;53.364;-1.480;2023-10-08T06:10:38;15.60;99.90
21259;DHT22;10787;53.364;-1.480;2023-10-08T06:13:22;15.60;99.90
21259;DHT22;10787;53.364;-1.480;2023-10-08T06:16:26;15.60;99.90
21259;DHT22;10787;53.364;-1.480;2023-10-08T06:19:25;15.50;99.90
21259;DHT22;10787;53.364;-1.480;2023-10-08T06:22:10;15.60;99.90
21259;DHT22;10787;53.364;-1.480;2023-10-08T06:24:54;15.60;99.90
21259;DHT22;10787;53.364;-1.480;2023-10-08T06:27:58;15.60;99.90
21259;DHT22;10787;53.364;-1.480;2023-10-08T06:30:43;15.60;99.90
21259;DHT22;10787;53.364;-1.480;2023-10-08T06:33:27;15.60;99.90
21259;DHT22;10787;53.364;-1.480;2023-10-08T06:36:17;15.60;99.90
21259;DHT22;10787;53.364;-1.480;2023-10-08T06:39:23;15.60;99.90
21259;DHT22;10787;53.364;-1.480;2023-10-08T06:42:17;15.60;99.90
21259;DHT22;10787;53.364;-1.480;2023-10-08T06:45:02;15.50;99.90
21259;DHT22;10787;53.364;-1.480;2023-10-08T06:47:46;15.50;99.90
21259;DHT22;10787;53.364;-1.480;2023-10-08T06:50:33;15.60;99.90
21259;DHT22;10787;53.364;-1.480;2023-10-08T06:53:20;15.60;95.20
21259;DHT22;10787;53.364;-1.480;2023-10-08T06:56:05;15.60;29.00
21259;DHT22;10787;53.364;-1.480;2023-10-08T06:58:49;15.70;53.00
21259;DHT22;10787;53.364;-1.480;2023-10-08T07:01:37;15.70;90.00
21259;DHT22;10787;53.364;-1.480;2023-10-08T07:04:24;15.70;69.50
21259;DHT22;10787;53.364;-1.480;2023-10-08T07:07:41;15.70;95.60
21259;DHT22;10787;53.364;-1.480;2023-10-08T07:10:28;15.80;29.40
21259;DHT22;10787;53.364;-1.480;2023-10-08T07:13:14;15.80;47.40
21259;DHT22;10787;53.364;-1.480;2023-10-08T07:16:01;15.80;96.00
21259;DHT22;10787;53.364;-1.480;2023-10-08T07:18:48;15.80;99.90
21259;DHT22;10787;53.364;-1.480;2023-10-08T07:21:35;15.90;79.70
21259;DHT22;10787;53.364;-1.480;2023-10-08T07:24:28;15.90;1.00
21259;DHT22;10787;53.364;-1.480;2023-10-08T07:27:14;15.90;1.00
21259;DHT22;10787;53.364;-1.480;2023-10-08T07:29:59;15.90;1.00
21259;DHT22;10787;53.364;-1.480;2023-10-08T07:32:46;15.90;1.00
21259;DHT22;10787;53.364;-1.480;2023-10-08T07:35:30;15.90;1.00
21259;DHT22;10787;53.364;-1.480;2023-10-08T07:38:25;15.90;1.00
21259;DHT22;10787;53.364;-1.480;2023-10-08T07:41:11;16.00;1.00
21259;DHT22;10787;53.364;-1.480;2023-10-08T07:43:56;16.00;1.00
21259;DHT22;10787;53.364;-1.480;2023-10-08T07:46:42;16.10;1.00
21259;DHT22;10787;53.364;-1.480;2023-10-08T07:49:28;16.10;1.00
21259;DHT22;10787;53.364;-1.480;2023-10-08T07:52:15;16.10;1.00
21259;DHT22;10787;53.364;-1.480;2023-10-08T07:55:02;16.10;1.00
21259;DHT22;10787;53.364;-1.480;2023-10-08T07:57:48;16.10;1.00
21259;DHT22;10787;53.364;-1.480;2023-10-08T08:00:34;16.10;1.00
21259;DHT22;10787;53.364;-1.480;2023-10-08T08:03:22;16.00;1.00
21259;DHT22;10787;53.364;-1.480;2023-10-08T08:06:09;16.10;1.00
21259;DHT22;10787;53.364;-1.480;2023-10-08T08:08:53;16.10;1.00
21259;DHT22;10787;53.364;-1.480;2023-10-08T08:11:39;16.10;1.00
21259;DHT22;10787;53.364;-1.480;2023-10-08T08:14:24;16.20;1.00
21259;DHT22;10787;53.364;-1.480;2023-10-08T08:17:09;16.20;1.00
21259;DHT22;10787;53.364;-1.480;2023-10-08T08:19:59;16.30;1.00
21259;DHT22;10787;53.364;-1.480;2023-10-08T08:22:50;16.40;1.00
21259;DHT22;10787;53.364;-1.480;2023-10-08T08:25:40;16.50;1.00
21259;DHT22;10787;53.364;-1.480;2023-10-08T08:28:50;16.60;1.00
21259;DHT22;10787;53.364;-1.480;2023-10-08T08:31:35;16.70;1.00
21259;DHT22;10787;53.364;-1.480;2023-10-08T08:34:19;16.70;1.00
21259;DHT22;10787;53.364;-1.480;2023-10-08T08:37:03;16.80;99.90
21259;DHT22;10787;53.364;-1.480;2023-10-08T08:39:48;16.90;99.90
21259;DHT22;10787;53.364;-1.480;2023-10-08T08:42:34;17.00;99.90
21259;DHT22;10787;53.364;-1.480;2023-10-08T08:45:25;17.10;99.90
21259;DHT22;10787;53.364;-1.480;2023-10-08T08:48:10;17.10;99.90
21259;DHT22;10787;53.364;-1.480;2023-10-08T08:50:56;17.10;99.90
21259;DHT22;10787;53.364;-1.480;2023-10-08T08:53:41;17.20;99.90
21259;DHT22;10787;53.364;-1.480;2023-10-08T08:56:26;17.30;1.00
21259;DHT22;10787;53.364;-1.480;2023-10-08T08:59:12;17.30;1.00
21259;DHT22;10787;53.364;-1.480;2023-10-08T09:01:58;17.40;1.00
21259;DHT22;10787;53.364;-1.480;2023-10-08T09:04:43;17.40;1.00
21259;DHT22;10787;53.364;-1.480;2023-10-08T09:07:29;17.50;1.00
21259;DHT22;10787;53.364;-1.480;2023-10-08T09:10:13;17.50;1.00
21259;DHT22;10787;53.364;-1.480;2023-10-08T09:12:59;17.50;1.00
21259;DHT22;10787;53.364;-1.480;2023-10-08T09:15:43;17.60;1.00
21259;DHT22;10787;53.364;-1.480;2023-10-08T09:18:27;17.70;1.00
21259;DHT22;10787;53.364;-1.480;2023-10-08T09:21:18;17.80;1.00
21259;DHT22;10787;53.364;-1.480;2023-10-08T09:24:03;17.80;1.00
21259;DHT22;10787;53.364;-1.480;2023-10-08T09:26:53;17.90;1.00
21259;DHT22;10787;53.364;-1.480;2023-10-08T09:29:39;18.00;1.00
21259;DHT22;10787;53.364;-1.480;2023-10-08T09:32:30;17.80;1.00
21259;DHT22;10787;53.364;-1.480;2023-10-08T09:35:15;17.70;1.00
21259;DHT22;10787;53.364;-1.480;2023-10-08T09:38:03;17.70;1.00
21259;DHT22;10787;53.364;-1.480;2023-10-08T09:40:48;17.60;1.00
21259;DHT22;10787;53.364;-1.480;2023-10-08T09:43:32;17.70;1.00
21259;DHT22;10787;53.364;-1.480;2023-10-08T09:46:19;17.70;1.00
21259;DHT22;10787;53.364;-1.480;2023-10-08T09:49:05;17.70;1.00
21259;DHT22;10787;53.364;-1.480;2023-10-08T09:51:52;17.80;1.00
21259;DHT22;10787;53.364;-1.480;2023-10-08T09:54:59;17.90;1.00
21259;DHT22;10787;53.364;-1.480;2023-10-08T09:57:44;18.10;1.00
21259;DHT22;10787;53.364;-1.480;2023-10-08T10:00:29;18.30;1.00
21259;DHT22;10787;53.364;-1.480;2023-10-08T10:03:15;18.50;1.00
21259;DHT22;10787;53.364;-1.480;2023-10-08T10:05:59;18.60;99.90
21259;DHT22;10787;53.364;-1.480;2023-10-08T10:08:45;18.80;99.90
21259;DHT22;10787;53.364;-1.480;2023-10-08T10:11:31;18.90;99.90
21259;DHT22;10787;53.364;-1.480;2023-10-08T10:14:16;19.00;99.90
21259;DHT22;10787;53.364;-1.480;2023-10-08T10:17:09;19.10;99.90
21259;DHT22;10787;53.364;-1.480;2023-10-08T10:19:55;19.30;99.90
21259;DHT22;10787;53.364;-1.480;2023-10-08T10:22:40;19.40;99.90
21259;DHT22;10787;53.364;-1.480;2023-10-08T10:25:34;19.50;99.90
21259;DHT22;10787;53.364;-1.480;2023-10-08T10:28:27;19.60;99.90
21259;DHT22;10787;53.364;-1.480;2023-10-08T10:31:19;19.80;99.90
21259;DHT22;10787;53.364;-1.480;2023-10-08T10:34:07;19.80;99.90
21259;DHT22;10787;53.364;-1.480;2023-10-08T10:36:57;20.00;99.90
21259;DHT22;10787;53.364;-1.480;2023-10-08T10:39:53;20.10;99.90
21259;DHT22;10787;53.364;-1.480;2023-10-08T10:42:39;20.20;99.90
21259;DHT22;10787;53.364;-1.480;2023-10-08T10:45:31;20.40;99.90
21259;DHT22;10787;53.364;-1.480;2023-10-08T10:48:26;20.40;99.90
21259;DHT22;10787;53.364;-1.480;2023-10-08T10:51:19;20.40;99.90
21259;DHT22;10787;53.364;-1.480;2023-10-08T10:54:03;20.40;99.90
21259;DHT22;10787;53.364;-1.480;2023-10-08T10:57:06;20.50;99.90
21259;DHT22;10787;53.364;-1.480;2023-10-08T11:00:04;20.40;99.90
21259;DHT22;10787;53.364;-1.480;2023-10-08T11:03:09;20.40;99.90
21259;DHT22;10787;53.364;-1.480;2023-10-08T11:06:07;20.30;99.90
21259;DHT22;10787;53.364;-1.480;2023-10-08T11:08:59;20.20;99.90
21259;DHT22;10787;53.364;-1.480;2023-10-08T11:11:44;20.20;99.90
21259;DHT22;10787;53.364;-1.480;2023-10-08T11:14:28;20.30;99.90
21259;DHT22;10787;53.364;-1.480;2023-10-08T11:17:15;20.20;99.90
21259;DHT22;10787;53.364;-1.480;2023-10-08T11:19:59;20.40;99.90
21259;DHT22;10787;53.364;-1.480;2023-10-08T11:22:51;20.50;99.90
21259;DHT22;10787;53.364;-1.480;2023-10-08T11:25:38;20.80;99.90
21259;DHT22;10787;53.364;-1.480;2023-10-08T11:28:37;21.20;99.90
21259;DHT22;10787;53.364;-1.480;2023-10-08T11:31:28;21.60;99.90
21259;DHT22;10787;53.364;-1.480;2023-10-08T11:34:12;22.10;99.90
21259;DHT22;10787;53.364;-1.480;2023-10-08T11:36:57;22.60;99.90
21259;DHT22;10787;53.364;-1.480;2023-10-08T11:39:41;23.10;99.90
21259;DHT22;10787;53.364;-1.480;2023-10-08T11:42:29;23.60;1.00
21259;DHT22;10787;53.364;-1.480;2023-10-08T11:45:16;24.30;1.00
21259;DHT22;10787;53.364;-1.480;2023-10-08T11:48:08;24.90;1.00
21259;DHT22;10787;53.364;-1.480;2023-10-08T11:51:06;25.40;1.00
21259;DHT22;10787;53.364;-1.480;2023-10-08T11:53:53;26.10;1.00
21259;DHT22;10787;53.364;-1.480;2023-10-08T11:56:39;26.30;24.90
21259;DHT22;10787;53.364;-1.480;2023-10-08T11:59:23;26.50;41.20
21259;DHT22;10787;53.364;-1.480;2023-10-08T12:02:09;26.60;1.00
21259;DHT22;10787;53.364;-1.480;2023-10-08T12:05:09;26.80;60.60
21259;DHT22;10787;53.364;-1.480;2023-10-08T12:08:02;27.10;99.90
21259;DHT22;10787;53.364;-1.480;2023-10-08T12:10:48;27.50;99.90
21259;DHT22;10787;53.364;-1.480;2023-10-08T12:13:33;28.00;99.90
21259;DHT22;10787;53.364;-1.480;2023-10-08T12:16:17;28.40;99.90
21259;DHT22;10787;53.364;-1.480;2023-10-08T12:19:07;28.50;99.90
21259;DHT22;10787;53.364;-1.480;2023-10-08T12:22:00;28.90;99.90
21259;DHT22;10787;53.364;-1.480;2023-10-08T12:24:46;29.10;99.90
21259;DHT22;10787;53.364;-1.480;2023-10-08T12:27:31;28.80;99.90
21259;DHT22;10787;53.364;-1.480;2023-10-08T12:30:15;28.60;1.00
21259;DHT22;10787;53.364;-1.480;2023-10-08T12:32:59;28.10;99.90
21259;DHT22;10787;53.364;-1.480;2023-10-08T12:35:44;28.20;99.90
21259;DHT22;10787;53.364;-1.480;2023-10-08T12:38:34;28.00;99.90
21259;DHT22;10787;53.364;-1.480;2023-10-08T12:41:18;27.70;99.90
21259;DHT22;10787;53.364;-1.480;2023-10-08T12:44:03;27.40;99.90
21259;DHT22;10787;53.364;-1.480;2023-10-08T12:46:51;27.00;99.90
21259;DHT22;10787;53.364;-1.480;2023-10-08T12:49:35;26.40;99.90
21259;DHT22;10787;53.364;-1.480;2023-10-08T12:52:20;26.00;99.90
21259;DHT22;10787;53.364;-1.480;2023-10-08T12:55:05;25.60;36.60
21259;DHT22;10787;53.364;-1.480;2023-10-08T12:57:53;25.40;32.80
21259;DHT22;10787;53.364;-1.480;2023-10-08T13:00:39;25.20;1.00
21259;DHT22;10787;53.364;-1.480;2023-10-08T13:03:27;25.00;13.70
21259;DHT22;10787;53.364;-1.480;2023-10-08T13:06:17;24.90;99.90
21259;DHT22;10787;53.364;-1.480;2023-10-08T13:09:12;24.70;99.90
21259;DHT22;10787;53.364;-1.480;2023-10-08T13:11:57;24.70;99.90
21259;DHT22;10787;53.364;-1.480;2023-10-08T13:14:43;24.60;1.00
21259;DHT22;10787;53.364;-1.480;2023-10-08T13:17:29;24.40;99.90
21259;DHT22;10787;53.364;-1.480;2023-10-08T13:20:13;24.40;93.30
21259;DHT22;10787;53.364;-1.480;2023-10-08T13:23:02;24.40;64.50
21259;DHT22;10787;53.364;-1.480;2023-10-08T13:25:47;24.50;99.90
21259;DHT22;10787;53.364;-1.480;2023-10-08T13:28:38;24.50;58.00
21259;DHT22;10787;53.364;-1.480;2023-10-08T13:31:24;25.10;99.90
21259;DHT22;10787;53.364;-1.480;2023-10-08T13:34:09;25.80;99.90
21259;DHT22;10787;53.364;-1.480;2023-10-08T13:36:56;26.20;99.90
21259;DHT22;10787;53.364;-1.480;2023-10-08T13:39:40;26.50;99.90
21259;DHT22;10787;53.364;-1.480;2023-10-08T13:42:24;27.00;99.90
21259;DHT22;10787;53.364;-1.480;2023-10-08T13:45:14;27.30;99.90
21259;DHT22;10787;53.364;-1.480;2023-10-08T13:48:10;27.80;99.90
21259;DHT22;10787;53.364;-1.480;2023-10-08T13:50:58;28.40;99.90
21259;DHT22;10787;53.364;-1.480;2023-10-08T13:53:55;29.40;99.90
21259;DHT22;10787;53.364;-1.480;2023-10-08T13:56:50;30.60;99.90
21259;DHT22;10787;53.364;-1.480;2023-10-08T13:59:35;32.10;99.90
21259;DHT22;10787;53.364;-1.480;2023-10-08T14:02:19;32.80;99.90
21259;DHT22;10787;53.364;-1.480;2023-10-08T14:05:06;33.40;99.90
21259;DHT22;10787;53.364;-1.480;2023-10-08T14:07:52;32.90;1.00
21259;DHT22;10787;53.364;-1.480;2023-10-08T14:10:37;31.60;1.00
21259;DHT22;10787;53.364;-1.480;2023-10-08T14:13:22;30.00;1.00
21259;DHT22;10787;53.364;-1.480;2023-10-08T14:16:06;29.10;1.00
21259;DHT22;10787;53.364;-1.480;2023-10-08T14:18:53;28.90;1.00
21259;DHT22;10787;53.364;-1.480;2023-10-08T14:21:43;29.10;1.00
21259;DHT22;10787;53.364;-1.480;2023-10-08T14:24:34;30.00;1.00
21259;DHT22;10787;53.364;-1.480;2023-10-08T14:27:22;31.40;1.00
21259;DHT22;10787;53.364;-1.480;2023-10-08T14:30:10;32.30;1.00
21259;DHT22;10787;53.364;-1.480;2023-10-08T14:33:05;33.10;87.80
21259;DHT22;10787;53.364;-1.480;2023-10-08T14:35:53;33.90;99.90
21259;DHT22;10787;53.364;-1.480;2023-10-08T14:38:56;34.30;99.90
21259;DHT22;10787;53.364;-1.480;2023-10-08T14:41:59;34.20;1.00
21259;DHT22;10787;53.364;-1.480;2023-10-08T14:45:02;33.80;1.00
21259;DHT22;10787;53.364;-1.480;2023-10-08T14:47:47;32.10;1.00
21259;DHT22;10787;53.364;-1.480;2023-10-08T14:50:32;30.60;1.00
21259;DHT22;10787;53.364;-1.480;2023-10-08T14:53:17;29.50;1.00
21259;DHT22;10787;53.364;-1.480;2023-10-08T14:56:01;28.60;1.00
21259;DHT22;10787;53.364;-1.480;2023-10-08T14:58:48;28.50;1.00
21259;DHT22;10787;53.364;-1.480;2023-10-08T15:01:33;29.10;1.00
21259;DHT22;10787;53.364;-1.480;2023-10-08T15:04:17;29.70;1.00
21259;DHT22;10787;53.364;-1.480;2023-10-08T15:07:02;30.40;1.00
21259;DHT22;10787;53.364;-1.480;2023-10-08T15:09:46;31.20;1.00
21259;DHT22;10787;53.364;-1.480;2023-10-08T15:12:33;31.70;1.00
21259;DHT22;10787;53.364;-1.480;2023-10-08T15:15:19;32.10;1.00
21259;DHT22;10787;53.364;-1.480;2023-10-08T15:18:03;32.30;1.00
21259;DHT22;10787;53.364;-1.480;2023-10-08T15:20:49;32.00;1.00
21259;DHT22;10787;53.364;-1.480;2023-10-08T15:23:33;31.60;1.00
21259;DHT22;10787;53.364;-1.480;2023-10-08T15:26:18;31.20;1.00
21259;DHT22;10787;53.364;-1.480;2023-10-08T15:29:02;30.70;1.00
21259;DHT22;10787;53.364;-1.480;2023-10-08T15:31:47;30.10;1.00
21259;DHT22;10787;53.364;-1.480;2023-10-08T15:34:33;29.90;1.00
21259;DHT22;10787;53.364;-1.480;2023-10-08T15:37:18;30.10;1.00
21259;DHT22;10787;53.364;-1.480;2023-10-08T15:40:03;30.50;1.00
21259;DHT22;10787;53.364;-1.480;2023-10-08T15:42:52;30.90;1.00
21259;DHT22;10787;53.364;-1.480;2023-10-08T15:45:37;31.10;1.00
21259;DHT22;10787;53.364;-1.480;2023-10-08T15:48:21;31.30;1.00
21259;DHT22;10787;53.364;-1.480;2023-10-08T15:51:06;31.00;1.00
21259;DHT22;10787;53.364;-1.480;2023-10-08T15:53:50;30.60;1.00
21259;DHT22;10787;53.364;-1.480;2023-10-08T15:56:34;29.70;1.00
21259;DHT22;10787;53.364;-1.480;2023-10-08T15:59:19;28.80;1.00
21259;DHT22;10787;53.364;-1.480;2023-10-08T16:02:03;28.60;1.00
21259;DHT22;10787;53.364;-1.480;2023-10-08T16:04:47;28.00;1.00
21259;DHT22;10787;53.364;-1.480;2023-10-08T16:07:32;27.10;1.00
21259;DHT22;10787;53.364;-1.480;2023-10-08T16:10:16;26.20;1.00
21259;DHT22;10787;53.364;-1.480;2023-10-08T16:13:01;25.50;1.00
21259;DHT22;10787;53.364;-1.480;2023-10-08T16:15:45;25.00;1.00
21259;DHT22;10787;53.364;-1.480;2023-10-08T16:18:29;24.60;1.00
21259;DHT22;10787;53.364;-1.480;2023-10-08T16:21:13;24.30;1.00
21259;DHT22;10787;53.364;-1.480;2023-10-08T16:23:58;24.10;1.00
21259;DHT22;10787;53.364;-1.480;2023-10-08T16:26:42;23.80;1.00
21259;DHT22;10787;53.364;-1.480;2023-10-08T16:29:27;23.50;1.00
21259;DHT22;10787;53.364;-1.480;2023-10-08T16:32:11;23.40;1.00
21259;DHT22;10787;53.364;-1.480;2023-10-08T16:34:56;23.20;1.00
21259;DHT22;10787;53.364;-1.480;2023-10-08T16:37:41;23.00;1.00
21259;DHT22;10787;53.364;-1.480;2023-10-08T16:40:26;22.80;1.00
21259;DHT22;10787;53.364;-1.480;2023-10-08T16:43:12;22.70;1.00
21259;DHT22;10787;53.364;-1.480;2023-10-08T16:45:59;22.50;1.00
21259;DHT22;10787;53.364;-1.480;2023-10-08T16:48:49;22.40;1.00
21259;DHT22;10787;53.364;-1.480;2023-10-08T16:51:33;22.30;1.00
21259;DHT22;10787;53.364;-1.480;2023-10-08T16:54:18;22.10;1.00
21259;DHT22;10787;53.364;-1.480;2023-10-08T16:57:03;22.00;1.00
21259;DHT22;10787;53.364;-1.480;2023-10-08T16:59:49;21.90;1.00
21259;DHT22;10787;53.364;-1.480;2023-10-08T17:02:33;21.80;1.00
21259;DHT22;10787;53.364;-1.480;2023-10-08T17:05:18;21.60;1.00
21259;DHT22;10787;53.364;-1.480;2023-10-08T17:08:02;21.60;1.00
21259;DHT22;10787;53.364;-1.480;2023-10-08T17:10:48;21.50;1.00
21259;DHT22;10787;53.364;-1.480;2023-10-08T17:13:32;21.50;1.00
21259;DHT22;10787;53.364;-1.480;2023-10-08T17:16:17;21.50;99.90
21259;DHT22;10787;53.364;-1.480;2023-10-08T17:19:02;21.50;99.90
21259;DHT22;10787;53.364;-1.480;2023-10-08T17:21:46;21.40;99.90
21259;DHT22;10787;53.364;-1.480;2023-10-08T17:24:33;21.30;99.90
21259;DHT22;10787;53.364;-1.480;2023-10-08T17:27:18;21.20;1.00
21259;DHT22;10787;53.364;-1.480;2023-10-08T17:30:03;21.20;99.90
21259;DHT22;10787;53.364;-1.480;2023-10-08T17:32:50;21.20;1.00
21259;DHT22;10787;53.364;-1.480;2023-10-08T17:35:36;21.10;1.00